Time;durP1;ratioP1;P1;durP2;ratioP2;P2;SDS_P1;SDS_P2;PMS_P1;PMS_P2;Temp;Humidity;BMP_temperature;BMP_pressure;BME280_temperature;BME280_humidity;BME280_pressure;Samples;Min_cycle;Max_cycle;Signal;HPM_P1;HPM_P2
2023/10/28 00:00:05;;;;;;;7.18;1.13;;;13.90;64.90;;;;;;5021936;28;20417;-55
2023/10/28 00:02:33;;;;;;;5.80;1.02;;;13.90;65.00;;;;;;5022025;28;20041;-56
2023/10/28 00:05:02;;;;;;;4.47;1.00;;;14.00;65.10;;;;;;5022580;28;20057;-56
2023/10/28 00:07:29;;;;;;;6.35;1.30;;;14.00;65.10;;;;;;5022420;28;20049;-56
2023/10/28 00:09:57;;;;;;;7.55;1.40;;;14.00;65.10;;;;;;5022798;28;20053;-56
2023/10/28 00:12:24;;;;;;;6.93;1.48;;;14.00;65.10;;;;;;5020132;28;20053;-53
2023/10/28 00:14:52;;;;;;;8.57;1.55;;;14.10;65.20;;;;;;5021049;28;20056;-56
2023/10/28 00:17:19;;;;;;;5.50;1.27;;;14.10;65.20;;;;;;5021603;28;20726;-56
2023/10/28 00:19:48;;;;;;;4.70;1.30;;;14.10;65.10;;;;;;5022728;28;20057;-56
2023/10/28 00:22:17;;;;;;;7.65;2.17;;;14.10;65.10;;;;;;5021039;28;20049;-56
2023/10/28 00:24:44;;;;;;;6.25;1.15;;;14.10;65.10;;;;;;5021234;28;20054;-55
2023/10/28 00:27:12;;;;;;;8.10;1.13;;;14.20;65.10;;;;;;5021693;28;20060;-55
2023/10/28 00:29:40;;;;;;;4.00;0.90;;;14.20;65.10;;;;;;5018657;28;20049;-56
2023/10/28 00:32:07;;;;;;;5.07;1.20;;;14.20;65.10;;;;;;5019895;28;20042;-56
2023/10/28 00:34:35;;;;;;;3.88;0.90;;;14.20;65.10;;;;;;5019866;28;20053;-55
2023/10/28 00:37:02;;;;;;;4.15;1.02;;;14.20;65.10;;;;;;5021644;28;20379;-55
2023/10/28 00:39:30;;;;;;;3.60;0.80;;;14.20;65.00;;;;;;5020151;28;20050;-55
2023/10/28 00:42:00;;;;;;;3.00;0.65;;;14.30;65.00;;;;;;5020380;28;20056;-53
2023/10/28 00:44:32;;;;;;;4.57;0.75;;;14.30;65.00;;;;;;5021598;28;20057;-55
2023/10/28 00:47:02;;;;;;;3.60;0.90;;;14.30;65.00;;;;;;5019548;28;20049;-55
2023/10/28 00:49:29;;;;;;;1.25;0.60;;;14.30;64.90;;;;;;5020870;28;20065;-55
2023/10/28 00:51:57;;;;;;;7.30;1.00;;;14.40;65.00;;;;;;5020883;28;20060;-56
2023/10/28 00:54:25;;;;;;;4.05;0.60;;;14.40;65.10;;;;;;5021728;28;20046;-52
2023/10/28 00:56:55;;;;;;;6.28;0.85;;;14.40;65.10;;;;;;5020654;28;20069;-56
2023/10/28 00:59:23;;;;;;;3.60;0.70;;;14.40;65.10;;;;;;5019769;28;20418;-55
2023/10/28 01:01:51;;;;;;;5.50;1.10;;;14.40;65.10;;;;;;5019030;28;20060;-55
2023/10/28 01:04:19;;;;;;;3.42;0.80;;;14.40;65.00;;;;;;5020125;28;20564;-56
2023/10/28 01:06:46;;;;;;;3.13;0.70;;;14.40;65.00;;;;;;5021488;28;20063;-56
2023/10/28 01:09:14;;;;;;;3.72;1.10;;;14.50;65.00;;;;;;5021201;28;20084;-56
2023/10/28 01:11:42;;;;;;;2.83;0.98;;;14.50;65.00;;;;;;5019380;28;20410;-55
2023/10/28 01:14:11;;;;;;;2.00;0.63;;;14.50;65.10;;;;;;5020878;28;20128;-56
2023/10/28 01:16:40;;;;;;;4.63;0.82;;;14.50;65.00;;;;;;5020007;28;20057;-54
2023/10/28 01:19:09;;;;;;;2.20;0.88;;;14.50;65.00;;;;;;5020912;28;20057;-56
2023/10/28 01:21:40;;;;;;;2.50;0.88;;;14.50;64.90;;;;;;5020740;28;20045;-56
2023/10/28 01:24:08;;;;;;;5.03;1.02;;;14.50;64.90;;;;;;5019325;28;20053;-55
2023/10/28 01:26:36;;;;;;;4.95;1.05;;;14.60;65.00;;;;;;5019983;28;21463;-56
2023/10/28 01:29:04;;;;;;;6.38;1.23;;;14.60;64.90;;;;;;5021923;28;20050;-52
2023/10/28 01:31:31;;;;;;;4.15;0.93;;;14.60;64.90;;;;;;5017503;28;20517;-51
2023/10/28 01:33:58;;;;;;;3.25;0.98;;;14.60;64.90;;;;;;5019350;28;20042;-52
2023/10/28 01:36:25;;;;;;;3.63;1.20;;;14.60;65.00;;;;;;5020951;28;20053;-51
2023/10/28 01:38:54;;;;;;;5.82;1.40;;;14.60;64.90;;;;;;5018774;28;20049;-49
2023/10/28 01:41:22;;;;;;;4.65;1.10;;;14.60;65.00;;;;;;5020904;28;20053;-51
2023/10/28 01:43:49;;;;;;;4.03;1.08;;;14.60;64.90;;;;;;5019489;28;20057;-50
2023/10/28 01:46:16;;;;;;;2.15;0.95;;;14.60;64.90;;;;;;5018528;28;20072;-51
2023/10/28 01:48:45;;;;;;;5.45;1.13;;;14.60;64.90;;;;;;5019876;28;20387;-50
2023/10/28 01:51:12;;;;;;;3.85;1.20;;;14.60;64.80;;;;;;5020302;28;20053;-49
2023/10/28 01:53:39;;;;;;;4.07;1.20;;;14.60;64.90;;;;;;5020083;28;20053;-48
2023/10/28 01:56:08;;;;;;;2.85;1.38;;;14.70;64.90;;;;;;5020907;28;20524;-51
2023/10/28 01:58:35;;;;;;;3.40;1.10;;;14.70;64.80;;;;;;5020511;28;20050;-51
2023/10/28 02:01:03;;;;;;;3.55;1.70;;;14.70;64.80;;;;;;5016254;28;20054;-50
2023/10/28 02:03:32;;;;;;;3.72;1.30;;;14.60;65.40;;;;;;5019458;28;20045;-50
2023/10/28 02:05:59;;;;;;;5.85;1.40;;;14.60;64.60;;;;;;5019802;28;20137;-51
2023/10/28 02:08:26;;;;;;;5.43;1.58;;;14.70;64.50;;;;;;5019146;28;20049;-51
2023/10/28 02:10:53;;;;;;;4.30;1.48;;;14.70;64.50;;;;;;5017883;28;20045;-53
2023/10/28 02:13:23;;;;;;;5.28;1.52;;;14.70;64.50;;;;;;5016305;28;20057;-52
2023/10/28 02:15:51;;;;;;;4.97;1.35;;;14.60;64.50;;;;;;5015794;28;20088;-52
2023/10/28 02:18:18;;;;;;;4.15;1.50;;;14.70;64.40;;;;;;5018927;28;20064;-53
2023/10/28 02:20:46;;;;;;;3.92;0.98;;;14.60;64.20;;;;;;5017670;28;20053;-53
2023/10/28 02:23:14;;;;;;;3.17;0.80;;;14.60;64.20;;;;;;5020036;28;20494;-50
2023/10/28 02:25:42;;;;;;;2.40;0.73;;;14.60;64.10;;;;;;5019123;28;20441;-51
2023/10/28 02:28:09;;;;;;;1.85;0.60;;;14.60;63.90;;;;;;5018586;28;20064;-52
2023/10/28 02:30:39;;;;;;;5.40;0.70;;;14.60;64.00;;;;;;5018121;28;20053;-53
2023/10/28 02:33:07;;;;;;;1.40;0.85;;;14.60;63.90;;;;;;5018296;28;20061;-50
2023/10/28 02:35:34;;;;;;;1.88;0.70;;;14.60;63.80;;;;;;5021262;28;20065;-51
2023/10/28 02:38:04;;;;;;;2.45;0.50;;;14.60;63.80;;;;;;5023505;28;20068;-52
2023/10/28 02:40:31;;;;;;;2.45;0.57;;;14.60;63.90;;;;;;5021753;28;20045;-54
2023/10/28 02:42:58;;;;;;;4.20;0.85;;;14.60;64.00;;;;;;5021124;28;20064;-56
2023/10/28 02:45:26;;;;;;;2.58;0.57;;;14.60;64.00;;;;;;5021986;28;20069;-49
2023/10/28 02:47:54;;;;;;;1.88;0.40;;;14.60;63.90;;;;;;5022144;28;20056;-52
2023/10/28 02:50:22;;;;;;;2.78;0.57;;;14.60;63.80;;;;;;5023534;28;20053;-50
2023/10/28 02:52:50;;;;;;;0.88;0.30;;;14.60;63.80;;;;;;5021760;28;20072;-53
2023/10/28 02:55:17;;;;;;;2.35;0.57;;;14.60;63.80;;;;;;5022461;28;20056;-55
2023/10/28 02:57:44;;;;;;;5.20;0.68;;;14.60;63.70;;;;;;5022468;28;20045;-53
2023/10/28 03:00:12;;;;;;;4.68;0.77;;;14.60;63.70;;;;;;5021797;28;20053;-51
2023/10/28 03:02:40;;;;;;;2.03;0.40;;;14.60;63.60;;;;;;5018721;28;20136;-48
2023/10/28 03:05:09;;;;;;;1.98;0.30;;;14.60;63.40;;;;;;5021212;28;20062;-49
2023/10/28 03:07:36;;;;;;;0.98;0.30;;;14.60;63.30;;;;;;5020025;28;20049;-51
2023/10/28 03:10:04;;;;;;;0.60;0.30;;;14.60;63.10;;;;;;5020394;28;20058;-54
2023/10/28 03:12:31;;;;;;;3.72;0.70;;;14.60;63.10;;;;;;5019928;28;20065;-47
2023/10/28 03:14:59;;;;;;;3.53;0.38;;;14.60;63.80;;;;;;5020919;28;20058;-53
2023/10/28 03:17:26;;;;;;;0.45;0.20;;;14.60;63.30;;;;;;5021192;28;20144;-49
2023/10/28 03:19:53;;;;;;;2.25;0.32;;;14.60;63.40;;;;;;5019758;28;20080;-52
2023/10/28 03:22:22;;;;;;;1.13;0.30;;;14.60;63.40;;;;;;5021799;28;20689;-50
2023/10/28 03:24:49;;;;;;;2.13;0.40;;;14.60;63.40;;;;;;5018727;28;20057;-51
2023/10/28 03:27:17;;;;;;;1.50;0.45;;;14.60;63.30;;;;;;5020064;28;20076;-52
2023/10/28 03:29:45;;;;;;;1.05;0.40;;;14.50;63.30;;;;;;5021255;28;20045;-52
2023/10/28 03:32:12;;;;;;;1.38;0.30;;;14.60;63.20;;;;;;5019117;28;20060;-50
2023/10/28 03:34:40;;;;;;;1.48;0.45;;;14.50;63.00;;;;;;5020422;28;20053;-49
2023/10/28 03:37:07;;;;;;;2.00;0.40;;;14.50;63.00;;;;;;5019863;28;20068;-49
2023/10/28 03:39:38;;;;;;;0.65;0.38;;;14.50;62.80;;;;;;5021106;28;20053;-52
2023/10/28 03:42:06;;;;;;;3.65;0.35;;;14.50;62.60;;;;;;5020502;28;20433;-52
2023/10/28 03:44:33;;;;;;;1.10;0.30;;;14.50;62.50;;;;;;5020955;28;20061;-49
2023/10/28 03:47:01;;;;;;;0.95;0.20;;;14.50;62.30;;;;;;5018373;28;20056;-51
2023/10/28 03:49:28;;;;;;;1.75;0.40;;;14.50;62.10;;;;;;5022503;28;20053;-54
2023/10/28 03:51:55;;;;;;;2.58;0.30;;;14.50;62.00;;;;;;5020068;28;20120;-56
2023/10/28 03:54:23;;;;;;;3.30;0.63;;;14.40;61.90;;;;;;5022080;28;20053;-56
2023/10/28 03:56:51;;;;;;;1.00;0.30;;;14.40;61.80;;;;;;5022112;28;20045;-53
2023/10/28 03:59:19;;;;;;;6.03;0.30;;;14.40;61.70;;;;;;5022740;28;20053;-56
2023/10/28 04:01:47;;;;;;;5.78;0.45;;;14.30;61.60;;;;;;5018709;28;20064;-54
2023/10/28 04:04:14;;;;;;;2.42;0.30;;;14.30;61.60;;;;;;5021675;28;20060;-56
2023/10/28 04:06:41;;;;;;;0.52;0.30;;;14.30;61.80;;;;;;5020859;28;20386;-55
2023/10/28 04:09:08;;;;;;;0.60;0.30;;;14.30;61.70;;;;;;5021318;28;20050;-52
2023/10/28 04:11:37;;;;;;;1.33;0.50;;;14.20;61.80;;;;;;5021719;28;20057;-55
2023/10/28 04:14:05;;;;;;;1.38;0.25;;;14.20;61.90;;;;;;5017938;28;20052;-55
2023/10/28 04:16:33;;;;;;;2.55;0.40;;;14.20;62.10;;;;;;5017919;28;20050;-55
2023/10/28 04:19:00;;;;;;;0.52;0.25;;;14.20;62.20;;;;;;5019071;28;20061;-56
2023/10/28 04:21:29;;;;;;;2.45;0.40;;;14.10;62.30;;;;;;5021420;28;20076;-56
2023/10/28 04:23:56;;;;;;;2.92;0.35;;;14.10;62.50;;;;;;5019988;28;20061;-55
2023/10/28 04:26:23;;;;;;;1.13;0.50;;;14.10;62.50;;;;;;5020870;28;20489;-55
2023/10/28 04:28:50;;;;;;;1.20;0.43;;;14.10;62.60;;;;;;5019551;28;20049;-55
2023/10/28 04:31:19;;;;;;;0.75;0.38;;;14.10;62.60;;;;;;5019470;28;20115;-55
2023/10/28 04:33:46;;;;;;;1.10;0.43;;;14.10;62.70;;;;;;5019862;28;20049;-54
2023/10/28 04:36:14;;;;;;;1.10;0.40;;;14.10;62.70;;;;;;5021518;28;20045;-56
2023/10/28 04:38:42;;;;;;;1.67;0.50;;;14.10;62.80;;;;;;5022783;28;20053;-55
2023/10/28 04:41:09;;;;;;;2.80;0.60;;;14.10;62.80;;;;;;5022104;28;20064;-56
2023/10/28 04:43:36;;;;;;;1.42;0.60;;;14.10;62.80;;;;;;5019588;28;20056;-56
2023/10/28 04:46:04;;;;;;;1.45;0.52;;;14.10;62.80;;;;;;5018481;28;20053;-55
2023/10/28 04:48:34;;;;;;;0.50;0.40;;;14.10;62.80;;;;;;5021562;28;20053;-55
2023/10/28 04:51:02;;;;;;;0.30;0.30;;;14.10;62.80;;;;;;5018814;28;20060;-57
2023/10/28 04:53:29;;;;;;;1.48;0.35;;;14.10;62.80;;;;;;5020196;28;20057;-54
2023/10/28 04:55:57;;;;;;;3.55;0.57;;;14.10;62.90;;;;;;5020379;28;20072;-56
2023/10/28 04:58:24;;;;;;;0.93;0.40;;;14.10;62.90;;;;;;5020397;28;20056;-54
2023/10/28 05:00:51;;;;;;;2.03;0.55;;;14.10;62.90;;;;;;5018861;28;20049;-49
2023/10/28 05:03:20;;;;;;;1.58;0.50;;;14.10;62.90;;;;;;5020206;28;20078;-52
2023/10/28 05:05:48;;;;;;;3.05;1.42;;;14.10;62.80;;;;;;5020832;28;20053;-49
2023/10/28 05:08:16;;;;;;;22.60;10.70;;;14.10;62.90;;;;;;5021358;28;20049;-53
2023/10/28 05:10:43;;;;;;;7.85;3.65;;;14.10;63.00;;;;;;5017903;28;20426;-51
2023/10/28 05:13:12;;;;;;;3.25;1.30;;;14.10;63.00;;;;;;5018433;28;20061;-50
2023/10/28 05:15:39;;;;;;;3.17;0.80;;;14.10;62.90;;;;;;5018205;28;20050;-50
2023/10/28 05:18:06;;;;;;;1.75;0.47;;;14.10;62.90;;;;;;5019665;28;20426;-51
2023/10/28 05:20:34;;;;;;;4.65;0.47;;;14.10;62.90;;;;;;5021678;28;20053;-50
2023/10/28 05:23:03;;;;;;;4.32;0.50;;;14.10;62.90;;;;;;5020639;28;20417;-50
2023/10/28 05:25:30;;;;;;;3.72;0.40;;;14.10;62.90;;;;;;5019165;28;21752;-49
2023/10/28 05:27:57;;;;;;;1.83;0.30;;;14.10;63.00;;;;;;5018441;28;20599;-51
2023/10/28 05:30:24;;;;;;;2.63;0.35;;;14.10;63.00;;;;;;5017805;28;20489;-49
2023/10/28 05:32:52;;;;;;;1.08;0.50;;;14.10;62.90;;;;;;5019507;28;20053;-51
2023/10/28 05:35:18;;;;;;;9.00;3.53;;;14.10;62.90;;;;;;5017586;28;20421;-52
2023/10/28 05:37:46;;;;;;;10.63;4.68;;;14.10;62.90;;;;;;5018217;28;20049;-51
2023/10/28 05:40:15;;;;;;;2.67;1.55;;;14.10;62.90;;;;;;5019429;28;20057;-49
2023/10/28 05:42:42;;;;;;;1.65;0.90;;;14.10;62.90;;;;;;5018394;28;20053;-49
2023/10/28 05:45:10;;;;;;;1.85;0.60;;;14.10;62.90;;;;;;5016547;28;20057;-50
2023/10/28 05:47:37;;;;;;;1.05;0.57;;;14.10;62.90;;;;;;5019748;28;20404;-48
2023/10/28 05:50:06;;;;;;;2.40;0.50;;;14.10;62.90;;;;;;5018654;28;20524;-53
2023/10/28 05:52:34;;;;;;;0.57;0.30;;;14.10;62.90;;;;;;5017677;28;20738;-50
2023/10/28 05:55:02;;;;;;;1.88;0.50;;;14.10;62.90;;;;;;5017820;28;20053;-50
2023/10/28 05:57:31;;;;;;;1.30;0.32;;;14.00;62.80;;;;;;5016804;28;20057;-50
2023/10/28 05:59:58;;;;;;;3.22;1.20;;;14.00;62.80;;;;;;5020434;28;20053;-53
2023/10/28 06:02:25;;;;;;;6.63;0.93;;;14.00;62.70;;;;;;5018226;28;20064;-52
2023/10/28 06:04:53;;;;;;;2.45;0.70;;;14.00;62.60;;;;;;5017371;28;20053;-51
2023/10/28 06:07:20;;;;;;;2.17;0.45;;;14.00;62.60;;;;;;5019910;28;20425;-48
2023/10/28 06:09:48;;;;;;;3.30;0.50;;;14.00;62.70;;;;;;5016655;28;20049;-48
2023/10/28 06:12:16;;;;;;;1.05;0.50;;;14.00;62.70;;;;;;5018463;28;20053;-52
2023/10/28 06:14:45;;;;;;;1.88;0.40;;;14.00;62.70;;;;;;5019621;28;20045;-52
2023/10/28 06:17:13;;;;;;;2.92;0.35;;;13.90;62.70;;;;;;5019541;28;20049;-50
2023/10/28 06:19:41;;;;;;;0.85;0.47;;;13.90;62.70;;;;;;5018409;28;20494;-50
2023/10/28 06:22:11;;;;;;;0.55;0.35;;;13.90;62.70;;;;;;5020017;28;20509;-51
2023/10/28 06:24:39;;;;;;;2.30;0.45;;;13.90;62.70;;;;;;5019348;28;20056;-50
2023/10/28 06:27:07;;;;;;;1.98;0.50;;;13.90;62.80;;;;;;5017473;28;20053;-50
2023/10/28 06:29:34;;;;;;;2.75;0.63;;;13.90;62.90;;;;;;5020927;28;20433;-48
2023/10/28 06:32:03;;;;;;;2.67;0.52;;;13.90;63.00;;;;;;5017105;28;20392;-50
2023/10/28 06:34:30;;;;;;;2.20;0.47;;;13.90;63.10;;;;;;5017928;28;20421;-52
2023/10/28 06:36:57;;;;;;;2.50;0.50;;;13.90;63.80;;;;;;5017828;28;20064;-52
2023/10/28 06:39:25;;;;;;;3.42;0.70;;;13.90;63.20;;;;;;5018153;28;20054;-52
2023/10/28 06:41:52;;;;;;;2.05;0.75;;;13.90;63.30;;;;;;5018306;28;20057;-48
2023/10/28 06:44:20;;;;;;;0.82;0.40;;;13.90;63.40;;;;;;5016689;28;20053;-50
2023/10/28 06:46:47;;;;;;;1.05;0.65;;;13.90;63.50;;;;;;5017532;28;20049;-52
2023/10/28 06:49:16;;;;;;;2.50;0.40;;;13.90;63.50;;;;;;5017406;28;20525;-47
2023/10/28 06:51:44;;;;;;;1.80;0.60;;;13.90;63.60;;;;;;5017935;28;20057;-53
2023/10/28 06:54:11;;;;;;;2.97;0.60;;;13.90;63.60;;;;;;5016597;28;20066;-53
2023/10/28 06:56:38;;;;;;;2.28;0.80;;;13.90;63.70;;;;;;5017523;28;20049;-48
2023/10/28 06:59:05;;;;;;;4.38;0.70;;;13.90;63.70;;;;;;5017818;28;20507;-49
2023/10/28 07:01:34;;;;;;;0.68;0.50;;;13.90;63.80;;;;;;5016936;28;20075;-49
2023/10/28 07:04:01;;;;;;;1.80;0.60;;;14.00;64.00;;;;;;5017236;28;20318;-49
2023/10/28 07:06:31;;;;;;;4.80;0.60;;;14.00;64.10;;;;;;5019472;28;20049;-54
2023/10/28 07:08:58;;;;;;;3.20;0.88;;;14.00;64.20;;;;;;5017587;28;20057;-49
2023/10/28 07:11:26;;;;;;;1.00;0.68;;;14.00;64.20;;;;;;5017511;28;20061;-52
2023/10/28 07:13:53;;;;;;;3.15;0.70;;;14.00;64.30;;;;;;5017535;28;20061;-50
2023/10/28 07:16:20;;;;;;;10.20;0.70;;;14.00;64.40;;;;;;5018668;28;20064;-47
2023/10/28 07:18:48;;;;;;;1.92;1.00;;;14.10;64.50;;;;;;5018640;28;20401;-50
2023/10/28 07:21:15;;;;;;;3.45;0.80;;;14.00;64.60;;;;;;5020400;28;20049;-50
2023/10/28 07:23:44;;;;;;;2.13;0.65;;;14.10;64.70;;;;;;5023435;28;20502;-52
2023/10/28 07:26:12;;;;;;;3.40;0.73;;;14.10;64.60;;;;;;5021985;28;20489;-51
2023/10/28 07:28:40;;;;;;;2.25;0.70;;;14.10;64.60;;;;;;5021632;28;20045;-53
2023/10/28 07:31:07;;;;;;;2.22;0.60;;;14.20;64.70;;;;;;5020505;28;20083;-49
2023/10/28 07:33:35;;;;;;;2.45;0.65;;;14.20;64.70;;;;;;5021995;28;20853;-49
2023/10/28 07:36:04;;;;;;;3.13;0.60;;;14.20;64.70;;;;;;5023173;28;20050;-54
2023/10/28 07:38:32;;;;;;;2.17;0.70;;;14.20;64.70;;;;;;5020737;28;20053;-50
2023/10/28 07:41:00;;;;;;;4.18;0.95;;;14.20;64.70;;;;;;5022340;28;20053;-51
2023/10/28 07:43:27;;;;;;;1.80;0.70;;;14.20;64.70;;;;;;5022740;28;20056;-54
2023/10/28 07:45:56;;;;;;;1.52;0.80;;;14.30;64.70;;;;;;5021611;28;20076;-52
2023/10/28 07:48:23;;;;;;;7.57;0.85;;;14.30;64.70;;;;;;5022355;28;20049;-49
2023/10/28 07:50:51;;;;;;;1.83;0.68;;;14.30;64.70;;;;;;5022189;28;21069;-49
2023/10/28 07:53:18;;;;;;;6.03;1.30;;;14.30;64.70;;;;;;5019788;28;20061;-54
2023/10/28 07:55:45;;;;;;;6.60;1.17;;;14.30;64.70;;;;;;5021340;28;20056;-52
2023/10/28 07:58:14;;;;;;;4.22;0.90;;;14.30;64.70;;;;;;5022664;28;20050;-50
2023/10/28 08:00:41;;;;;;;6.65;0.98;;;14.40;64.80;;;;;;5019070;28;20058;-50
2023/10/28 08:03:08;;;;;;;2.30;0.85;;;14.40;64.80;;;;;;5020189;28;20061;-50
2023/10/28 08:05:36;;;;;;;5.30;1.10;;;14.40;64.90;;;;;;5020797;28;20057;-54
2023/10/28 08:08:04;;;;;;;5.90;1.33;;;14.40;64.90;;;;;;5021507;28;20413;-52
2023/10/28 08:10:32;;;;;;;4.05;1.05;;;14.40;65.00;;;;;;5022114;28;20426;-51
2023/10/28 08:13:00;;;;;;;3.80;1.15;;;14.40;64.90;;;;;;5021281;28;20057;-50
2023/10/28 08:15:29;;;;;;;4.95;1.08;;;14.50;65.00;;;;;;5020442;28;20053;-51
2023/10/28 08:17:56;;;;;;;4.78;0.98;;;14.50;65.10;;;;;;5021604;28;20076;-51
2023/10/28 08:20:24;;;;;;;3.03;0.90;;;14.50;65.10;;;;;;5020656;28;20527;-54
2023/10/28 08:22:51;;;;;;;4.82;0.85;;;14.50;65.10;;;;;;5021583;28;20053;-49
2023/10/28 08:25:18;;;;;;;8.55;1.30;;;14.50;65.20;;;;;;5017531;28;20076;-53
2023/10/28 08:27:47;;;;;;;6.95;1.42;;;14.50;65.20;;;;;;5020631;28;20351;-46
2023/10/28 08:30:17;;;;;;;3.63;0.95;;;14.50;65.30;;;;;;5021563;28;20061;-53
2023/10/28 08:32:46;;;;;;;5.32;1.15;;;14.60;65.40;;;;;;5017500;28;20515;-55
2023/10/28 08:35:13;;;;;;;4.88;1.40;;;14.60;65.40;;;;;;5019378;28;20119;-55
2023/10/28 08:37:41;;;;;;;4.47;1.30;;;14.60;65.50;;;;;;5019545;28;20049;-57
2023/10/28 08:40:11;;;;;;;5.03;1.17;;;14.60;65.40;;;;;;5020725;28;20049;-56
2023/10/28 08:42:40;;;;;;;5.15;1.15;;;14.60;65.50;;;;;;5019954;28;20062;-56
2023/10/28 08:45:09;;;;;;;4.70;1.20;;;14.70;65.60;;;;;;5020526;28;20510;-55
2023/10/28 08:47:39;;;;;;;4.10;1.10;;;14.70;65.60;;;;;;5017880;28;20061;-55
2023/10/28 08:50:09;;;;;;;2.25;1.10;;;14.70;65.60;;;;;;5019101;28;20417;-56
2023/10/28 08:52:38;;;;;;;5.38;1.20;;;14.80;65.70;;;;;;5019462;28;20057;-57
2023/10/28 08:55:10;;;;;;;4.60;1.30;;;14.80;65.70;;;;;;5021502;28;20057;-56
2023/10/28 08:57:41;;;;;;;2.80;0.80;;;14.80;65.70;;;;;;5020314;28;20498;-52
2023/10/28 09:00:15;;;;;;;7.57;1.60;;;14.80;65.60;;;;;;5020802;28;20056;-56
2023/10/28 09:02:45;;;;;;;5.50;0.93;;;14.90;65.60;;;;;;5020113;28;20053;-56
2023/10/28 09:05:15;;;;;;;3.75;1.20;;;14.90;65.60;;;;;;5020256;28;20064;-56
2023/10/28 09:07:43;;;;;;;6.03;1.48;;;14.90;65.50;;;;;;5019249;28;20057;-55
2023/10/28 09:10:12;;;;;;;3.47;1.05;;;15.00;65.70;;;;;;5019995;28;20505;-56
2023/10/28 09:12:40;;;;;;;3.72;1.10;;;15.00;65.60;;;;;;5019895;28;20057;-56
2023/10/28 09:15:09;;;;;;;4.38;1.00;;;15.00;65.50;;;;;;5021801;28;20060;-55
2023/10/28 09:17:36;;;;;;;5.68;1.27;;;15.00;65.40;;;;;;5019917;28;20045;-56
2023/10/28 09:20:09;;;;;;;4.20;1.00;;;15.00;65.50;;;;;;4985960;28;20058;-56
2023/10/28 09:22:39;;;;;;;3.15;1.00;;;15.10;65.50;;;;;;4987782;28;20426;-54
2023/10/28 09:25:09;;;;;;;5.32;1.65;;;15.10;65.40;;;;;;4989808;28;20054;-55
2023/10/28 09:27:37;;;;;;;11.60;1.35;;;15.10;65.30;;;;;;4988498;28;20042;-53
2023/10/28 09:30:06;;;;;;;5.43;1.00;;;15.10;65.40;;;;;;4987644;28;20058;-54
2023/10/28 09:32:34;;;;;;;3.63;0.98;;;15.10;65.40;;;;;;4985353;28;20054;-56
2023/10/28 09:35:05;;;;;;;3.33;0.90;;;15.10;65.40;;;;;;4986312;28;20054;-55
2023/10/28 09:37:34;;;;;;;2.92;0.90;;;15.20;65.50;;;;;;4987512;28;20060;-55
2023/10/28 09:40:05;;;;;;;5.25;1.08;;;15.20;65.50;;;;;;4987672;28;20509;-55
2023/10/28 09:42:34;;;;;;;5.47;0.95;;;15.20;65.50;;;;;;4989411;28;20064;-56
2023/10/28 09:45:03;;;;;;;3.28;0.65;;;15.20;65.70;;;;;;4986388;28;20058;-55
2023/10/28 09:47:41;;;;;;;1.02;0.40;;;15.30;65.90;;;;;;4986282;28;20050;-56
2023/10/28 09:50:12;;;;;;;4.35;0.60;;;15.30;66.10;;;;;;4985766;28;20125;-55
2023/10/28 09:52:43;;;;;;;5.25;0.70;;;15.30;66.10;;;;;;4987207;28;20050;-57
2023/10/28 09:55:15;;;;;;;1.60;0.52;;;15.40;66.40;;;;;;4986651;28;20051;-56
2023/10/28 09:57:44;;;;;;;5.25;0.63;;;15.50;66.60;;;;;;4985143;28;20175;-54
2023/10/28 10:00:17;;;;;;;1.98;0.63;;;15.50;66.70;;;;;;4985132;28;20058;-56
2023/10/28 10:03:03;;;;;;;2.22;0.50;;;15.50;67.00;;;;;;4984961;28;20061;-55
2023/10/28 10:05:36;;;;;;;3.95;0.52;;;15.60;67.20;;;;;;4984731;28;20054;-56
2023/10/28 10:08:06;;;;;;;1.42;0.50;;;15.60;66.90;;;;;;4986263;28;20050;-56
2023/10/28 10:10:46;;;;;;;2.72;0.57;;;15.80;66.80;;;;;;4982504;28;20402;-56
2023/10/28 10:13:15;;;;;;;5.60;0.63;;;15.80;66.20;;;;;;4984880;28;20536;-55
2023/10/28 10:15:52;;;;;;;1.98;0.40;;;15.90;66.10;;;;;;4984167;28;20065;-54
2023/10/28 10:18:31;;;;;;;1.80;0.60;;;15.90;66.00;;;;;;4985046;28;20411;-56
2023/10/28 10:21:05;;;;;;;1.90;0.50;;;16.00;65.90;;;;;;4986162;28;20053;-55
2023/10/28 10:23:41;;;;;;;;;;;16.00;65.60;;;;;;4986511;28;20058;-55
2023/10/28 10:26:21;;;;;;;3.00;0.63;;;16.10;65.40;;;;;;4987188;28;19929;-56
2023/10/28 10:28:49;;;;;;;1.38;0.65;;;16.20;64.90;;;;;;4986278;28;20628;-53
2023/10/28 10:31:18;;;;;;;3.28;0.90;;;16.20;64.20;;;;;;4982440;28;20054;-56
2023/10/28 10:33:46;;;;;;;1.73;0.80;;;16.20;63.60;;;;;;4984514;28;20061;-54
2023/10/28 10:36:17;;;;;;;2.75;0.80;;;16.20;63.20;;;;;;4984929;28;20053;-55
2023/10/28 10:38:45;;;;;;;3.88;1.00;;;16.30;62.90;;;;;;4983588;28;20051;-52
2023/10/28 10:41:27;;;;;;;3.63;1.02;;;16.30;61.70;;;;;;4983652;28;20070;-54
2023/10/28 10:43:54;;;;;;;2.97;1.00;;;16.30;60.50;;;;;;4983096;28;20498;-56
2023/10/28 10:46:21;;;;;;;3.15;0.80;;;16.30;60.20;;;;;;4982275;28;20054;-53
2023/10/28 10:48:49;;;;;;;2.38;0.60;;;16.30;59.90;;;;;;4984668;28;20050;-55
2023/10/28 10:51:19;;;;;;;5.03;0.63;;;16.30;59.80;;;;;;4983301;28;20058;-51
2023/10/28 10:53:47;;;;;;;2.92;0.93;;;16.40;59.90;;;;;;4984648;28;20054;-56
2023/10/28 10:56:21;;;;;;;5.78;0.98;;;16.30;59.20;;;;;;4985435;28;20069;-54
2023/10/28 10:58:49;;;;;;;3.75;0.75;;;16.40;59.00;;;;;;4989622;28;20509;-47
2023/10/28 11:01:16;;;;;;;4.90;0.88;;;16.40;59.20;;;;;;4987470;28;20054;-51
2023/10/28 11:07:07;;;;;;;17.25;4.47;;;16.40;59.20;;;;;;4989915;28;20045;-47
2023/10/28 11:09:34;;;;;;;11.15;4.10;;;16.50;59.30;;;;;;4988313;28;20042;-50
2023/10/28 11:12:04;;;;;;;22.25;8.77;;;16.50;59.20;;;;;;4988447;28;20073;-48
2023/10/28 11:14:31;;;;;;;10.35;3.80;;;16.50;59.40;;;;;;4986937;28;20046;-50
2023/10/28 11:16:59;;;;;;;27.63;13.00;;;16.50;59.40;;;;;;4987021;28;20050;-49
2023/10/28 11:19:26;;;;;;;18.83;8.10;;;16.50;59.10;;;;;;4987430;28;20053;-49
2023/10/28 11:21:54;;;;;;;12.43;3.40;;;16.60;59.20;;;;;;4988277;28;20058;-48
2023/10/28 11:24:24;;;;;;;5.28;1.92;;;16.60;59.30;;;;;;4989638;28;20057;-50
2023/10/28 11:26:51;;;;;;;5.68;2.33;;;16.70;58.90;;;;;;4987354;28;20065;-48
2023/10/28 11:29:20;;;;;;;10.88;5.53;;;16.70;59.00;;;;;;4990524;28;20054;-50
2023/10/28 11:31:47;;;;;;;9.15;3.00;;;16.70;58.90;;;;;;4986399;28;20418;-52
2023/10/28 11:34:15;;;;;;;4.85;1.80;;;16.80;58.90;;;;;;4986521;28;20070;-50
2023/10/28 11:36:42;;;;;;;3.63;1.08;;;16.80;59.10;;;;;;4988950;28;20934;-53
2023/10/28 11:39:13;;;;;;;4.25;1.20;;;16.90;58.80;;;;;;4987834;28;20050;-50
2023/10/28 11:41:43;;;;;;;3.95;0.98;;;17.00;59.10;;;;;;4988974;28;20057;-49
2023/10/28 11:44:11;;;;;;;7.18;1.17;;;17.00;59.10;;;;;;4985336;28;20054;-51
2023/10/28 11:46:40;;;;;;;4.30;1.10;;;17.00;59.20;;;;;;4986674;28;20410;-52
2023/10/28 11:49:08;;;;;;;5.40;1.33;;;17.10;58.80;;;;;;4986471;28;20483;-51
2023/10/28 11:51:35;;;;;;;6.13;1.10;;;17.20;58.00;;;;;;4987016;28;20402;-49
2023/10/28 11:54:03;;;;;;;2.38;1.00;;;17.20;57.80;;;;;;4986585;28;20843;-54
2023/10/28 11:56:32;;;;;;;6.78;1.65;;;17.20;57.50;;;;;;4985525;28;20380;-51
2023/10/28 11:59:01;;;;;;;4.07;1.52;;;17.30;57.50;;;;;;4987018;28;20065;-54
2023/10/28 12:01:31;;;;;;;10.00;1.60;;;17.40;57.50;;;;;;4986854;28;20061;-56
2023/10/28 12:04:00;;;;;;;6.50;1.48;;;17.40;57.10;;;;;;4987260;28;20425;-56
2023/10/28 12:06:27;;;;;;;3.55;1.20;;;17.40;56.70;;;;;;4986969;28;20058;-56
2023/10/28 12:08:57;;;;;;;4.47;0.90;;;17.40;56.90;;;;;;4987943;28;20587;-56
2023/10/28 12:11:24;;;;;;;11.63;1.50;;;17.50;57.00;;;;;;4986760;28;20054;-56
2023/10/28 12:13:52;;;;;;;8.85;1.35;;;17.50;57.00;;;;;;4988135;28;20188;-56
2023/10/28 12:16:19;;;;;;;6.28;1.83;;;17.50;57.30;;;;;;4985749;28;20617;-56
2023/10/28 12:18:46;;;;;;;3.72;1.80;;;17.60;57.10;;;;;;4986217;28;20055;-55
2023/10/28 12:21:17;;;;;;;4.78;1.80;;;17.60;56.80;;;;;;4986740;28;20065;-56
2023/10/28 12:23:45;;;;;;;7.30;1.85;;;17.60;56.60;;;;;;4986670;28;20061;-57
2023/10/28 12:26:12;;;;;;;11.32;1.92;;;17.60;56.80;;;;;;4987363;28;20053;-57
2023/10/28 12:28:39;;;;;;;5.38;1.40;;;17.60;56.50;;;;;;4986473;28;20050;-57
2023/10/28 12:31:07;;;;;;;4.88;1.85;;;17.60;56.40;;;;;;4985907;28;20054;-57
2023/10/28 12:33:34;;;;;;;9.18;3.08;;;17.70;56.20;;;;;;4987032;28;20066;-56
2023/10/28 12:36:02;;;;;;;6.07;2.42;;;17.60;55.60;;;;;;4987352;28;20050;-57
2023/10/28 12:38:31;;;;;;;20.23;12.07;;;17.60;55.50;;;;;;4985887;28;20403;-55
2023/10/28 12:40:58;;;;;;;15.32;9.43;;;17.60;55.20;;;;;;4986685;28;20080;-56
2023/10/28 12:43:27;;;;;;;28.67;9.93;;;17.60;55.30;;;;;;4988307;28;20585;-57
2023/10/28 12:45:54;;;;;;;18.15;7.57;;;17.60;55.20;;;;;;4986596;28;20069;-57
2023/10/28 12:48:22;;;;;;;7.25;3.55;;;17.60;54.90;;;;;;4987101;28;20410;-58
2023/10/28 12:50:50;;;;;;;5.03;1.92;;;17.60;55.10;;;;;;4985918;28;20061;-57
2023/10/28 12:53:17;;;;;;;7.18;3.70;;;17.60;55.30;;;;;;4985807;28;20050;-57